sensor_id;sensor_type;location;lat;lon;timestamp;pressure;altitude;pressure_sealevel;temperature;humidity
69909;BME280;57190;47.918;8.112;2022-08-02T00:01:49;91235.81;;;15.16;69.74
69909;BME280;57190;47.918;8.112;2022-08-02T00:04:14;91248.22;;;15.12;69.74
69909;BME280;57190;47.918;8.112;2022-08-02T00:06:40;91240.25;;;15.01;70.14
69909;BME280;57190;47.918;8.112;2022-08-02T00:09:06;91236.78;;;15.01;70.33
69909;BME280;57190;47.918;8.112;2022-08-02T00:11:31;91243.25;;;15.00;70.58
69909;BME280;57190;47.918;8.112;2022-08-02T00:13:57;91235.97;;;15.00;70.58
69909;BME280;57190;47.918;8.112;2022-08-02T00:16:22;91234.38;;;14.99;70.95
69909;BME280;57190;47.918;8.112;2022-08-02T00:18:48;91229.06;;;14.94;71.10
69909;BME280;57190;47.918;8.112;2022-08-02T00:21:14;91243.00;;;14.96;71.36
69909;BME280;57190;47.918;8.112;2022-08-02T00:23:40;91238.78;;;14.90;71.80
69909;BME280;57190;47.918;8.112;2022-08-02T00:26:06;91235.59;;;14.83;72.54
69909;BME280;57190;47.918;8.112;2022-08-02T00:28:31;91235.13;;;14.81;72.42
69909;BME280;57190;47.918;8.112;2022-08-02T00:30:57;91229.78;;;14.75;72.39
69909;BME280;57190;47.918;8.112;2022-08-02T00:33:24;91231.66;;;14.75;72.49
69909;BME280;57190;47.918;8.112;2022-08-02T00:35:50;91231.44;;;14.71;72.50
69909;BME280;57190;47.918;8.112;2022-08-02T00:38:15;91229.84;;;14.70;72.47
69909;BME280;57190;47.918;8.112;2022-08-02T00:40:46;91225.03;;;14.67;72.05
69909;BME280;57190;47.918;8.112;2022-08-02T00:43:12;91222.88;;;14.64;72.16
69909;BME280;57190;47.918;8.112;2022-08-02T00:45:39;91219.16;;;14.60;71.78
69909;BME280;57190;47.918;8.112;2022-08-02T00:48:06;91215.69;;;14.59;71.86
69909;BME280;57190;47.918;8.112;2022-08-02T00:50:33;91225.84;;;14.62;71.70
69909;BME280;57190;47.918;8.112;2022-08-02T00:52:58;91216.47;;;14.60;71.65
69909;BME280;57190;47.918;8.112;2022-08-02T00:55:25;91213.25;;;14.58;71.55
69909;BME280;57190;47.918;8.112;2022-08-02T00:57:51;91207.09;;;14.57;71.63
69909;BME280;57190;47.918;8.112;2022-08-02T01:00:17;91212.22;;;14.54;72.01
69909;BME280;57190;47.918;8.112;2022-08-02T01:02:43;91203.19;;;14.44;72.10
69909;BME280;57190;47.918;8.112;2022-08-02T01:05:09;91201.91;;;14.37;72.55
69909;BME280;57190;47.918;8.112;2022-08-02T01:07:34;91200.28;;;14.36;72.60
69909;BME280;57190;47.918;8.112;2022-08-02T01:10:00;91202.25;;;14.30;72.79
69909;BME280;57190;47.918;8.112;2022-08-02T01:12:26;91195.81;;;14.26;72.72
69909;BME280;57190;47.918;8.112;2022-08-02T01:14:54;91198.22;;;14.27;72.69
69909;BME280;57190;47.918;8.112;2022-08-02T01:25:32;91206.00;;;14.29;72.94
69909;BME280;57190;47.918;8.112;2022-08-02T01:28:34;91207.59;;;14.30;73.14
69909;BME280;57190;47.918;8.112;2022-08-02T01:31:08;91212.63;;;14.37;72.82
69909;BME280;57190;47.918;8.112;2022-08-02T01:33:41;91202.97;;;14.36;72.65
69909;BME280;57190;47.918;8.112;2022-08-02T01:36:11;91205.94;;;14.34;72.63
69909;BME280;57190;47.918;8.112;2022-08-02T01:38:46;91193.34;;;14.35;72.71
69909;BME280;57190;47.918;8.112;2022-08-02T01:41:17;91194.44;;;14.34;72.67
69909;BME280;57190;47.918;8.112;2022-08-02T01:43:44;91192.59;;;14.29;72.60
69909;BME280;57190;47.918;8.112;2022-08-02T01:46:13;91198.47;;;14.31;72.48
69909;BME280;57190;47.918;8.112;2022-08-02T01:48:40;91197.97;;;14.24;72.80
69909;BME280;57190;47.918;8.112;2022-08-02T01:51:11;91197.97;;;14.24;72.56
69909;BME280;57190;47.918;8.112;2022-08-02T01:53:37;91193.38;;;14.29;72.73
69909;BME280;57190;47.918;8.112;2022-08-02T01:56:06;91191.75;;;14.34;72.74
69909;BME280;57190;47.918;8.112;2022-08-02T01:58:34;91185.38;;;14.24;72.81
69909;BME280;57190;47.918;8.112;2022-08-02T02:01:01;91190.47;;;14.26;72.74
69909;BME280;57190;47.918;8.112;2022-08-02T02:03:28;91190.50;;;14.21;73.14
69909;BME280;57190;47.918;8.112;2022-08-02T02:05:56;91185.66;;;14.23;73.09
69909;BME280;57190;47.918;8.112;2022-08-02T02:08:26;91181.88;;;14.24;73.16
69909;BME280;57190;47.918;8.112;2022-08-02T02:10:54;91177.88;;;14.21;73.20
69909;BME280;57190;47.918;8.112;2022-08-02T02:13:20;91171.19;;;14.19;73.28
69909;BME280;57190;47.918;8.112;2022-08-02T02:15:47;91170.06;;;14.25;73.14
69909;BME280;57190;47.918;8.112;2022-08-02T02:18:24;91161.22;;;14.24;73.16
69909;BME280;57190;47.918;8.112;2022-08-02T02:20:51;91160.53;;;14.13;73.47
69909;BME280;57190;47.918;8.112;2022-08-02T02:23:17;91160.84;;;14.07;73.95
69909;BME280;57190;47.918;8.112;2022-08-02T02:25:44;91160.78;;;14.12;74.07
69909;BME280;57190;47.918;8.112;2022-08-02T02:28:12;91161.59;;;14.12;74.22
69909;BME280;57190;47.918;8.112;2022-08-02T02:30:42;91155.72;;;14.10;74.00
69909;BME280;57190;47.918;8.112;2022-08-02T02:33:10;91149.78;;;14.13;73.91
69909;BME280;57190;47.918;8.112;2022-08-02T02:35:38;91154.56;;;14.22;74.07
69909;BME280;57190;47.918;8.112;2022-08-02T02:38:11;91152.59;;;14.27;73.93
69909;BME280;57190;47.918;8.112;2022-08-02T02:40:39;91153.03;;;14.10;73.80
69909;BME280;57190;47.918;8.112;2022-08-02T02:43:07;91154.72;;;14.01;74.22
69909;BME280;57190;47.918;8.112;2022-08-02T02:45:35;91163.06;;;13.94;74.49
69909;BME280;57190;47.918;8.112;2022-08-02T02:48:03;91164.19;;;13.88;74.90
69909;BME280;57190;47.918;8.112;2022-08-02T02:50:30;91155.63;;;13.86;75.19
69909;BME280;57190;47.918;8.112;2022-08-02T02:52:57;91160.19;;;13.86;75.00
69909;BME280;57190;47.918;8.112;2022-08-02T02:55:23;91163.66;;;13.86;74.91
69909;BME280;57190;47.918;8.112;2022-08-02T02:57:50;91165.91;;;13.74;74.71
69909;BME280;57190;47.918;8.112;2022-08-02T03:00:16;91171.28;;;13.68;75.18
69909;BME280;57190;47.918;8.112;2022-08-02T03:02:43;91162.94;;;13.75;75.75
69909;BME280;57190;47.918;8.112;2022-08-02T03:05:11;91159.66;;;13.89;75.80
69909;BME280;57190;47.918;8.112;2022-08-02T03:07:37;91149.94;;;13.93;75.73
69909;BME280;57190;47.918;8.112;2022-08-02T03:10:05;91152.09;;;13.96;75.83
69909;BME280;57190;47.918;8.112;2022-08-02T03:12:32;91142.38;;;14.00;75.77
69909;BME280;57190;47.918;8.112;2022-08-02T03:15:00;91140.75;;;14.04;75.97
69909;BME280;57190;47.918;8.112;2022-08-02T03:17:37;91149.88;;;14.03;75.62
69909;BME280;57190;47.918;8.112;2022-08-02T03:20:07;91144.59;;;13.93;75.36
69909;BME280;57190;47.918;8.112;2022-08-02T03:22:33;91143.63;;;13.78;75.36
69909;BME280;57190;47.918;8.112;2022-08-02T03:24:58;91142.34;;;13.71;75.53
69909;BME280;57190;47.918;8.112;2022-08-02T03:27:24;91146.38;;;13.68;75.80
69909;BME280;57190;47.918;8.112;2022-08-02T03:29:49;91142.66;;;13.64;75.76
69909;BME280;57190;47.918;8.112;2022-08-02T03:32:15;91144.03;;;13.56;75.75
69909;BME280;57190;47.918;8.112;2022-08-02T03:34:40;91150.53;;;13.50;75.71
69909;BME280;57190;47.918;8.112;2022-08-02T03:37:06;91153.25;;;13.40;75.88
69909;BME280;57190;47.918;8.112;2022-08-02T03:39:32;91150.00;;;13.37;76.14
69909;BME280;57190;47.918;8.112;2022-08-02T03:42:37;91150.53;;;13.50;76.12
69909;BME280;57190;47.918;8.112;2022-08-02T03:45:07;91151.53;;;13.59;76.68
69909;BME280;57190;47.918;8.112;2022-08-02T03:47:33;91146.69;;;13.61;76.97
69909;BME280;57190;47.918;8.112;2022-08-02T03:50:00;91149.41;;;13.56;76.71
69909;BME280;57190;47.918;8.112;2022-08-02T03:52:27;91146.25;;;13.44;76.19
69909;BME280;57190;47.918;8.112;2022-08-02T03:54:53;91143.09;;;13.31;76.53
69909;BME280;57190;47.918;8.112;2022-08-02T03:57:19;91145.81;;;13.26;76.72
69909;BME280;57190;47.918;8.112;2022-08-02T03:59:45;91146.56;;;13.32;76.42
69909;BME280;57190;47.918;8.112;2022-08-02T04:02:11;91140.69;;;13.25;77.06
69909;BME280;57190;47.918;8.112;2022-08-02T04:04:37;91141.19;;;13.32;77.02
69909;BME280;57190;47.918;8.112;2022-08-02T04:07:03;91133.16;;;13.32;77.15
69909;BME280;57190;47.918;8.112;2022-08-02T04:09:29;91136.41;;;13.24;77.39
69909;BME280;57190;47.918;8.112;2022-08-02T04:11:55;91133.75;;;13.24;77.12
69909;BME280;57190;47.918;8.112;2022-08-02T04:14:21;91128.13;;;13.20;77.20
69909;BME280;57190;47.918;8.112;2022-08-02T04:16:51;91142.84;;;13.23;77.38
69909;BME280;57190;47.918;8.112;2022-08-02T04:19:27;91138.56;;;13.27;77.81
69909;BME280;57190;47.918;8.112;2022-08-02T04:21:57;91141.44;;;13.35;77.20
69909;BME280;57190;47.918;8.112;2022-08-02T04:24:27;91140.88;;;13.44;76.90
69909;BME280;57190;47.918;8.112;2022-08-02T04:26:57;91135.28;;;13.40;76.72
69909;BME280;57190;47.918;8.112;2022-08-02T04:29:25;91144.41;;;13.34;76.74
69909;BME280;57190;47.918;8.112;2022-08-02T04:31:52;91147.38;;;13.32;76.50
69909;BME280;57190;47.918;8.112;2022-08-02T04:34:19;91149.22;;;13.32;76.77
69909;BME280;57190;47.918;8.112;2022-08-02T04:36:45;91147.91;;;13.34;76.83
69909;BME280;57190;47.918;8.112;2022-08-02T04:39:11;91146.28;;;13.39;77.33
69909;BME280;57190;47.918;8.112;2022-08-02T04:41:42;91149.47;;;13.46;77.17
69909;BME280;57190;47.918;8.112;2022-08-02T04:44:08;91146.22;;;13.49;77.33
69909;BME280;57190;47.918;8.112;2022-08-02T04:46:35;91143.41;;;13.70;76.51
69909;BME280;57190;47.918;8.112;2022-08-02T04:49:01;91136.91;;;13.81;76.32
69909;BME280;57190;47.918;8.112;2022-08-02T04:51:27;91145.94;;;13.90;76.34
69909;BME280;57190;47.918;8.112;2022-08-02T04:53:52;91138.34;;;14.03;76.11
69909;BME280;57190;47.918;8.112;2022-08-02T04:56:18;91148.44;;;14.11;76.02
69909;BME280;57190;47.918;8.112;2022-08-02T04:58:43;91154.59;;;14.17;76.03
69909;BME280;57190;47.918;8.112;2022-08-02T05:01:09;91159.16;;;14.16;75.90
69909;BME280;57190;47.918;8.112;2022-08-02T05:03:34;91150.75;;;14.28;75.67
69909;BME280;57190;47.918;8.112;2022-08-02T05:06:00;91152.00;;;14.36;75.24
69909;BME280;57190;47.918;8.112;2022-08-02T05:08:25;91151.63;;;14.48;74.74
69909;BME280;57190;47.918;8.112;2022-08-02T05:10:51;91158.47;;;14.64;74.70
69909;BME280;57190;47.918;8.112;2022-08-02T05:13:17;91161.28;;;14.78;74.52
69909;BME280;57190;47.918;8.112;2022-08-02T05:15:42;91170.03;;;14.89;74.19
69909;BME280;57190;47.918;8.112;2022-08-02T05:18:08;91170.50;;;14.96;74.26
69909;BME280;57190;47.918;8.112;2022-08-02T05:20:34;91170.94;;;15.03;74.27
69909;BME280;57190;47.918;8.112;2022-08-02T05:22:59;91165.72;;;15.12;73.97
69909;BME280;57190;47.918;8.112;2022-08-02T05:25:25;91170.31;;;15.12;74.14
69909;BME280;57190;47.918;8.112;2022-08-02T05:27:51;91173.00;;;15.12;73.92
69909;BME280;57190;47.918;8.112;2022-08-02T05:30:16;91172.19;;;15.11;74.18
69909;BME280;57190;47.918;8.112;2022-08-02T05:32:44;91166.81;;;15.11;74.26
69909;BME280;57190;47.918;8.112;2022-08-02T05:35:10;91165.50;;;15.08;74.28
69909;BME280;57190;47.918;8.112;2022-08-02T05:37:36;91168.94;;;15.14;74.13
69909;BME280;57190;47.918;8.112;2022-08-02T05:40:02;91164.75;;;15.27;73.98
69909;BME280;57190;47.918;8.112;2022-08-02T05:42:31;91173.34;;;15.29;73.78
69909;BME280;57190;47.918;8.112;2022-08-02T05:44:57;91166.06;;;15.30;73.72
69909;BME280;57190;47.918;8.112;2022-08-02T05:47:22;91160.13;;;15.33;73.73
69909;BME280;57190;47.918;8.112;2022-08-02T05:49:48;91157.66;;;15.36;73.59
69909;BME280;57190;47.918;8.112;2022-08-02T05:52:18;91159.81;;;15.34;73.89
69909;BME280;57190;47.918;8.112;2022-08-02T05:55:04;91158.81;;;15.30;73.76
69909;BME280;57190;47.918;8.112;2022-08-02T05:57:57;91156.38;;;15.29;73.97
69909;BME280;57190;47.918;8.112;2022-08-02T06:00:29;91166.91;;;15.25;74.08
69909;BME280;57190;47.918;8.112;2022-08-02T06:03:26;91174.75;;;15.21;74.37
69909;BME280;57190;47.918;8.112;2022-08-02T06:08:38;91169.19;;;15.37;73.58
69909;BME280;57190;47.918;8.112;2022-08-02T06:11:05;91168.63;;;15.40;73.46
69909;BME280;57190;47.918;8.112;2022-08-02T06:13:36;91163.47;;;15.44;73.60
69909;BME280;57190;47.918;8.112;2022-08-02T06:16:02;91162.03;;;15.51;73.57
69909;BME280;57190;47.918;8.112;2022-08-02T06:18:30;91159.47;;;15.60;73.07
69909;BME280;57190;47.918;8.112;2022-08-02T06:21:00;91167.41;;;15.70;73.20
69909;BME280;57190;47.918;8.112;2022-08-02T06:23:26;91158.06;;;15.87;72.91
69909;BME280;57190;47.918;8.112;2022-08-02T06:25:57;91154.84;;;16.04;72.51
69909;BME280;57190;47.918;8.112;2022-08-02T06:28:24;91164.06;;;16.17;71.67
69909;BME280;57190;47.918;8.112;2022-08-02T06:30:51;91164.09;;;16.31;71.39
69909;BME280;57190;47.918;8.112;2022-08-02T06:33:17;91175.00;;;16.40;71.19
69909;BME280;57190;47.918;8.112;2022-08-02T06:36:16;91171.13;;;16.46;71.42
69909;BME280;57190;47.918;8.112;2022-08-02T06:38:55;91178.16;;;16.61;71.47
69909;BME280;57190;47.918;8.112;2022-08-02T06:41:27;91175.00;;;16.73;71.11
69909;BME280;57190;47.918;8.112;2022-08-02T06:44:04;91182.38;;;16.81;71.02
69909;BME280;57190;47.918;8.112;2022-08-02T06:46:31;91186.00;;;16.90;71.01
69909;BME280;57190;47.918;8.112;2022-08-02T06:48:57;91172.13;;;16.97;71.22
69909;BME280;57190;47.918;8.112;2022-08-02T06:51:24;91182.03;;;17.02;70.53
69909;BME280;57190;47.918;8.112;2022-08-02T06:53:49;91182.63;;;17.12;70.19
69909;BME280;57190;47.918;8.112;2022-08-02T06:56:15;91184.34;;;17.22;69.87
69909;BME280;57190;47.918;8.112;2022-08-02T06:58:40;91185.53;;;17.30;69.78
69909;BME280;57190;47.918;8.112;2022-08-02T07:01:06;91186.81;;;17.47;69.71
69909;BME280;57190;47.918;8.112;2022-08-02T07:03:34;91179.72;;;17.65;69.14
69909;BME280;57190;47.918;8.112;2022-08-02T07:06:00;91173.41;;;17.83;69.15
69909;BME280;57190;47.918;8.112;2022-08-02T07:08:26;91179.16;;;17.90;68.51
69909;BME280;57190;47.918;8.112;2022-08-02T07:11:00;91176.75;;;18.03;67.98
69909;BME280;57190;47.918;8.112;2022-08-02T07:13:26;91186.22;;;18.14;67.71
69909;BME280;57190;47.918;8.112;2022-08-02T07:15:52;91178.19;;;18.23;66.96
69909;BME280;57190;47.918;8.112;2022-08-02T07:18:18;91177.34;;;18.36;66.71
69909;BME280;57190;47.918;8.112;2022-08-02T07:20:45;91177.75;;;18.52;66.16
69909;BME280;57190;47.918;8.112;2022-08-02T07:23:11;91183.59;;;18.68;66.19
69909;BME280;57190;47.918;8.112;2022-08-02T07:25:37;91186.66;;;18.76;66.09
69909;BME280;57190;47.918;8.112;2022-08-02T07:28:04;91182.09;;;18.85;65.11
69909;BME280;57190;47.918;8.112;2022-08-02T07:30:30;91187.06;;;18.92;64.87
69909;BME280;57190;47.918;8.112;2022-08-02T07:32:58;91184.09;;;19.02;64.63
69909;BME280;57190;47.918;8.112;2022-08-02T07:35:23;91177.66;;;19.12;64.31
69909;BME280;57190;47.918;8.112;2022-08-02T07:37:49;91180.72;;;19.28;63.98
69909;BME280;57190;47.918;8.112;2022-08-02T07:42:42;91184.25;;;19.37;62.67
69909;BME280;57190;47.918;8.112;2022-08-02T07:45:09;91190.66;;;19.50;62.26
69909;BME280;57190;47.918;8.112;2022-08-02T07:47:36;91182.84;;;19.89;61.57
69909;BME280;57190;47.918;8.112;2022-08-02T07:50:03;91192.59;;;20.42;59.92
69909;BME280;57190;47.918;8.112;2022-08-02T07:52:29;91189.72;;;20.21;59.82
69909;BME280;57190;47.918;8.112;2022-08-02T07:54:55;91187.47;;;20.23;59.79
69909;BME280;57190;47.918;8.112;2022-08-02T07:57:20;91180.16;;;20.33;60.59
69909;BME280;57190;47.918;8.112;2022-08-02T07:59:46;91180.47;;;20.49;59.90
69909;BME280;57190;47.918;8.112;2022-08-02T08:02:13;91172.34;;;20.66;59.33
69909;BME280;57190;47.918;8.112;2022-08-02T08:04:39;91189.38;;;20.67;59.00
69909;BME280;57190;47.918;8.112;2022-08-02T08:07:05;91178.69;;;20.70;58.39
69909;BME280;57190;47.918;8.112;2022-08-02T08:09:34;91190.78;;;20.91;58.27
69909;BME280;57190;47.918;8.112;2022-08-02T08:12:06;91181.59;;;20.83;57.45
69909;BME280;57190;47.918;8.112;2022-08-02T08:14:32;91180.78;;;20.56;58.67
69909;BME280;57190;47.918;8.112;2022-08-02T08:16:58;91178.88;;;20.30;59.18
69909;BME280;57190;47.918;8.112;2022-08-02T08:19:23;91182.38;;;20.39;59.82
69909;BME280;57190;47.918;8.112;2022-08-02T08:21:49;91187.63;;;20.80;59.04
69909;BME280;57190;47.918;8.112;2022-08-02T08:24:14;91185.84;;;20.93;58.99
69909;BME280;57190;47.918;8.112;2022-08-02T08:26:40;91184.94;;;20.88;58.38
69909;BME280;57190;47.918;8.112;2022-08-02T08:29:05;91185.72;;;20.89;59.04
69909;BME280;57190;47.918;8.112;2022-08-02T08:31:32;91178.53;;;20.84;58.35
69909;BME280;57190;47.918;8.112;2022-08-02T08:33:58;91180.72;;;21.09;58.03
69909;BME280;57190;47.918;8.112;2022-08-02T08:36:23;91181.94;;;21.29;57.55
69909;BME280;57190;47.918;8.112;2022-08-02T08:38:49;91171.16;;;21.50;57.62
69909;BME280;57190;47.918;8.112;2022-08-02T08:41:18;91171.94;;;21.59;57.55
69909;BME280;57190;47.918;8.112;2022-08-02T08:43:45;91168.44;;;21.89;56.90
69909;BME280;57190;47.918;8.112;2022-08-02T08:46:20;91162.94;;;22.19;56.19
69909;BME280;57190;47.918;8.112;2022-08-02T08:48:52;91169.84;;;22.37;54.83
69909;BME280;57190;47.918;8.112;2022-08-02T08:51:20;91167.66;;;22.30;55.05
69909;BME280;57190;47.918;8.112;2022-08-02T08:53:48;91173.66;;;21.94;55.46
69909;BME280;57190;47.918;8.112;2022-08-02T08:56:19;91170.66;;;21.57;55.97
69909;BME280;57190;47.918;8.112;2022-08-02T08:58:45;91175.19;;;21.35;56.19
69909;BME280;57190;47.918;8.112;2022-08-02T09:01:14;91180.75;;;21.47;56.29
69909;BME280;57190;47.918;8.112;2022-08-02T09:03:42;91174.13;;;21.66;55.44
69909;BME280;57190;47.918;8.112;2022-08-02T09:06:08;91180.28;;;21.45;55.92
69909;BME280;57190;47.918;8.112;2022-08-02T09:08:33;91171.56;;;21.31;56.26
69909;BME280;57190;47.918;8.112;2022-08-02T09:10:59;91160.91;;;21.56;55.47
69909;BME280;57190;47.918;8.112;2022-08-02T09:13:27;91168.91;;;21.91;54.89
69909;BME280;57190;47.918;8.112;2022-08-02T09:16:00;91169.63;;;22.21;53.55
69909;BME280;57190;47.918;8.112;2022-08-02T09:18:37;91159.56;;;22.22;52.94
69909;BME280;57190;47.918;8.112;2022-08-02T09:21:05;91161.69;;;22.16;54.24
69909;BME280;57190;47.918;8.112;2022-08-02T09:26:26;91167.19;;;22.28;53.28
69909;BME280;57190;47.918;8.112;2022-08-02T09:28:59;91164.88;;;22.18;53.54
69909;BME280;57190;47.918;8.112;2022-08-02T09:31:26;91159.75;;;22.38;53.95
69909;BME280;57190;47.918;8.112;2022-08-02T09:33:59;91166.66;;;22.35;53.41
69909;BME280;57190;47.918;8.112;2022-08-02T09:36:26;91161.63;;;22.46;53.61
69909;BME280;57190;47.918;8.112;2022-08-02T09:39:00;91166.28;;;22.79;52.69
69909;BME280;57190;47.918;8.112;2022-08-02T09:41:28;91167.34;;;22.87;51.94
69909;BME280;57190;47.918;8.112;2022-08-02T09:43:55;91166.94;;;23.09;51.64
69909;BME280;57190;47.918;8.112;2022-08-02T09:46:23;91165.34;;;23.42;51.35
69909;BME280;57190;47.918;8.112;2022-08-02T09:48:53;91161.38;;;23.52;51.64
69909;BME280;57190;47.918;8.112;2022-08-02T09:51:28;91160.38;;;23.69;51.55
69909;BME280;57190;47.918;8.112;2022-08-02T09:54:06;91157.53;;;23.53;49.71
69909;BME280;57190;47.918;8.112;2022-08-02T09:56:44;91150.59;;;23.55;50.30
69909;BME280;57190;47.918;8.112;2022-08-02T09:59:11;91149.25;;;23.62;49.51
69909;BME280;57190;47.918;8.112;2022-08-02T10:01:37;91156.75;;;23.77;49.59
69909;BME280;57190;47.918;8.112;2022-08-02T10:04:05;91147.88;;;23.93;49.63
69909;BME280;57190;47.918;8.112;2022-08-02T10:06:32;91145.41;;;24.00;48.15
69909;BME280;57190;47.918;8.112;2022-08-02T10:08:58;91152.22;;;23.94;47.94
69909;BME280;57190;47.918;8.112;2022-08-02T10:11:25;91148.22;;;23.91;48.01
69909;BME280;57190;47.918;8.112;2022-08-02T10:13:52;91148.69;;;24.06;47.81
69909;BME280;57190;47.918;8.112;2022-08-02T10:16:20;91146.53;;;23.99;48.70
69909;BME280;57190;47.918;8.112;2022-08-02T10:18:50;91147.94;;;24.33;49.18
69909;BME280;57190;47.918;8.112;2022-08-02T10:21:21;91147.16;;;24.61;48.57
69909;BME280;57190;47.918;8.112;2022-08-02T10:23:49;91150.53;;;24.42;48.10
69909;BME280;57190;47.918;8.112;2022-08-02T10:26:16;91147.81;;;24.42;49.99
69909;BME280;57190;47.918;8.112;2022-08-02T10:28:45;91142.03;;;24.31;48.54
69909;BME280;57190;47.918;8.112;2022-08-02T10:31:12;91149.00;;;24.29;48.67
69909;BME280;57190;47.918;8.112;2022-08-02T10:33:39;91141.13;;;24.27;48.81
69909;BME280;57190;47.918;8.112;2022-08-02T10:36:07;91136.78;;;24.39;48.87
69909;BME280;57190;47.918;8.112;2022-08-02T10:38:34;91131.94;;;24.60;48.89
69909;BME280;57190;47.918;8.112;2022-08-02T10:41:00;91140.38;;;24.68;48.85
69909;BME280;57190;47.918;8.112;2022-08-02T10:46:35;91141.72;;;24.61;49.74
69909;BME280;57190;47.918;8.112;2022-08-02T10:49:10;91139.72;;;24.87;49.26
69909;BME280;57190;47.918;8.112;2022-08-02T10:54:19;91145.13;;;24.71;49.13
69909;BME280;57190;47.918;8.112;2022-08-02T10:56:50;91133.91;;;24.47;48.58
69909;BME280;57190;47.918;8.112;2022-08-02T10:59:28;91134.81;;;24.52;49.68
69909;BME280;57190;47.918;8.112;2022-08-02T11:01:55;91135.13;;;24.62;49.20
69909;BME280;57190;47.918;8.112;2022-08-02T11:04:31;91145.31;;;24.78;49.61
69909;BME280;57190;47.918;8.112;2022-08-02T11:07:21;91141.41;;;24.91;48.75
69909;BME280;57190;47.918;8.112;2022-08-02T11:09:55;91137.38;;;25.01;49.02
69909;BME280;57190;47.918;8.112;2022-08-02T11:12:21;91140.00;;;24.98;48.92
69909;BME280;57190;47.918;8.112;2022-08-02T11:15:01;91146.31;;;25.02;48.66
69909;BME280;57190;47.918;8.112;2022-08-02T11:17:52;91139.53;;;24.95;49.07
69909;BME280;57190;47.918;8.112;2022-08-02T11:20:20;91140.78;;;24.98;48.56
69909;BME280;57190;47.918;8.112;2022-08-02T11:22:47;91142.13;;;25.04;48.36
69909;BME280;57190;47.918;8.112;2022-08-02T11:27:52;91142.38;;;24.99;47.83
69909;BME280;57190;47.918;8.112;2022-08-02T11:30:19;91139.91;;;24.94;48.53
69909;BME280;57190;47.918;8.112;2022-08-02T11:32:46;91141.03;;;24.93;49.00
69909;BME280;57190;47.918;8.112;2022-08-02T11:35:11;91132.81;;;24.77;49.58
69909;BME280;57190;47.918;8.112;2022-08-02T11:37:39;91132.19;;;24.96;48.98
69909;BME280;57190;47.918;8.112;2022-08-02T11:40:08;91139.09;;;24.93;48.27
69909;BME280;57190;47.918;8.112;2022-08-02T11:42:36;91139.00;;;24.90;48.71
69909;BME280;57190;47.918;8.112;2022-08-02T11:45:04;91135.03;;;24.71;49.53
69909;BME280;57190;47.918;8.112;2022-08-02T11:47:30;91134.72;;;24.89;49.17
69909;BME280;57190;47.918;8.112;2022-08-02T11:50:09;91142.69;;;24.82;48.89
69909;BME280;57190;47.918;8.112;2022-08-02T11:52:36;91141.94;;;24.97;48.56
69909;BME280;57190;47.918;8.112;2022-08-02T11:55:03;91140.78;;;24.98;48.21
69909;BME280;57190;47.918;8.112;2022-08-02T11:57:30;91139.53;;;24.79;47.80
69909;BME280;57190;47.918;8.112;2022-08-02T11:59:56;91142.38;;;24.71;47.92
69909;BME280;57190;47.918;8.112;2022-08-02T12:02:25;91135.84;;;24.59;47.34
69909;BME280;57190;47.918;8.112;2022-08-02T12:04:55;91133.88;;;24.60;48.01
69909;BME280;57190;47.918;8.112;2022-08-02T12:07:26;91134.94;;;24.55;48.42
69909;BME280;57190;47.918;8.112;2022-08-02T12:09:52;91134.81;;;24.92;47.92
69909;BME280;57190;47.918;8.112;2022-08-02T12:12:17;91133.94;;;25.04;48.02
69909;BME280;57190;47.918;8.112;2022-08-02T12:14:43;91138.16;;;25.02;47.07
69909;BME280;57190;47.918;8.112;2022-08-02T12:17:08;91142.72;;;24.98;46.99
69909;BME280;57190;47.918;8.112;2022-08-02T12:19:53;91145.50;;;24.85;47.13
69909;BME280;57190;47.918;8.112;2022-08-02T12:22:24;91129.53;;;25.00;46.92
69909;BME280;57190;47.918;8.112;2022-08-02T12:24:55;91132.19;;;25.12;46.84
69909;BME280;57190;47.918;8.112;2022-08-02T12:27:47;91138.44;;;25.28;47.18
69909;BME280;57190;47.918;8.112;2022-08-02T12:30:15;91130.47;;;25.52;46.64
69909;BME280;57190;47.918;8.112;2022-08-02T12:32:41;91130.41;;;25.64;46.05
69909;BME280;57190;47.918;8.112;2022-08-02T12:35:17;91126.66;;;25.88;45.64
69909;BME280;57190;47.918;8.112;2022-08-02T12:37:48;91133.88;;;26.13;45.27
69909;BME280;57190;47.918;8.112;2022-08-02T12:42:47;91129.06;;;26.26;44.53
69909;BME280;57190;47.918;8.112;2022-08-02T12:45:13;91130.97;;;26.41;44.61
69909;BME280;57190;47.918;8.112;2022-08-02T12:47:47;91130.47;;;26.55;43.45
69909;BME280;57190;47.918;8.112;2022-08-02T12:50:19;91122.25;;;26.75;43.35
69909;BME280;57190;47.918;8.112;2022-08-02T12:52:46;91115.56;;;27.11;42.53
69909;BME280;57190;47.918;8.112;2022-08-02T12:55:21;91118.47;;;27.22;42.17
69909;BME280;57190;47.918;8.112;2022-08-02T12:57:59;91119.59;;;26.98;42.33
69909;BME280;57190;47.918;8.112;2022-08-02T13:02:52;91118.78;;;27.17;43.08
69909;BME280;57190;47.918;8.112;2022-08-02T13:05:19;91111.63;;;27.55;42.44
69909;BME280;57190;47.918;8.112;2022-08-02T13:07:44;91110.28;;;27.69;40.95
69909;BME280;57190;47.918;8.112;2022-08-02T13:10:10;91113.78;;;27.66;41.96
69909;BME280;57190;47.918;8.112;2022-08-02T13:12:36;91112.19;;;27.65;41.08
69909;BME280;57190;47.918;8.112;2022-08-02T13:15:05;91115.75;;;27.69;41.69
69909;BME280;57190;47.918;8.112;2022-08-02T13:17:31;91103.59;;;27.66;40.96
69909;BME280;57190;47.918;8.112;2022-08-02T13:19:56;91111.03;;;27.42;41.86
69909;BME280;57190;47.918;8.112;2022-08-02T13:22:22;91113.22;;;27.56;41.50
69909;BME280;57190;47.918;8.112;2022-08-02T13:24:47;91114.66;;;27.73;41.29
69909;BME280;57190;47.918;8.112;2022-08-02T13:27:15;91105.94;;;27.91;41.58
69909;BME280;57190;47.918;8.112;2022-08-02T13:29:41;91101.19;;;28.15;40.55
69909;BME280;57190;47.918;8.112;2022-08-02T13:32:06;91109.25;;;28.04;40.21
69909;BME280;57190;47.918;8.112;2022-08-02T13:34:32;91107.88;;;27.90;40.95
69909;BME280;57190;47.918;8.112;2022-08-02T13:36:58;91108.94;;;28.09;41.20